sensor_id;sensor_type;location;lat;lon;timestamp;pressure;altitude;pressure_sealevel;temperature;humidity
66857;BME280;53766;50.280;19.160;2022-08-07T00:00:51;99189.88;;;25.27;45.66
66857;BME280;53766;50.280;19.160;2022-08-07T00:03:19;99194.44;;;25.27;45.41
66857;BME280;53766;50.280;19.160;2022-08-07T00:05:52;99193.63;;;25.26;45.27
66857;BME280;53766;50.280;19.160;2022-08-07T00:08:20;99199.03;;;25.26;45.31
66857;BME280;53766;50.280;19.160;2022-08-07T00:10:51;99196.56;;;25.24;45.34
66857;BME280;53766;50.280;19.160;2022-08-07T00:13:24;99207.34;;;25.24;45.41
66857;BME280;53766;50.280;19.160;2022-08-07T00:15:53;99195.75;;;25.24;45.04
66857;BME280;53766;50.280;19.160;2022-08-07T00:18:23;99203.81;;;25.24;45.22
66857;BME280;53766;50.280;19.160;2022-08-07T00:20:54;99201.13;;;25.24;45.03
66857;BME280;53766;50.280;19.160;2022-08-07T00:23:23;99205.69;;;25.23;45.20
66857;BME280;53766;50.280;19.160;2022-08-07T00:25:55;99215.63;;;25.23;44.96
66857;BME280;53766;50.280;19.160;2022-08-07T00:28:29;99214.81;;;25.22;45.11
66857;BME280;53766;50.280;19.160;2022-08-07T00:31:03;99212.13;;;25.22;45.03
66857;BME280;53766;50.280;19.160;2022-08-07T00:33:39;99208.63;;;25.22;45.24
66857;BME280;53766;50.280;19.160;2022-08-07T00:36:08;99213.16;;;25.21;45.02
66857;BME280;53766;50.280;19.160;2022-08-07T00:38:36;99213.16;;;25.21;45.01
66857;BME280;53766;50.280;19.160;2022-08-07T00:41:05;99206.97;;;25.21;44.67
66857;BME280;53766;50.280;19.160;2022-08-07T00:43:42;99205.34;;;25.20;44.70
66857;BME280;53766;50.280;19.160;2022-08-07T00:46:29;99210.72;;;25.20;45.04
66857;BME280;53766;50.280;19.160;2022-08-07T00:49:00;99214.44;;;25.19;44.93
66857;BME280;53766;50.280;19.160;2022-08-07T00:51:30;99215.28;;;25.19;44.85
66857;BME280;53766;50.280;19.160;2022-08-07T00:54:18;99207.19;;;25.19;44.63
66857;BME280;53766;50.280;19.160;2022-08-07T00:56:47;99210.09;;;25.18;44.75
66857;BME280;53766;50.280;19.160;2022-08-07T00:59:17;99201.41;;;25.16;44.58
66857;BME280;53766;50.280;19.160;2022-08-07T01:02:06;99204.13;;;25.16;44.65
66857;BME280;53766;50.280;19.160;2022-08-07T01:04:53;99207.63;;;25.16;44.48
66857;BME280;53766;50.280;19.160;2022-08-07T01:07:27;99207.84;;;25.15;44.56
66857;BME280;53766;50.280;19.160;2022-08-07T01:09:57;99208.09;;;25.13;44.45
66857;BME280;53766;50.280;19.160;2022-08-07T01:12:40;99218.63;;;25.15;44.35
66857;BME280;53766;50.280;19.160;2022-08-07T01:15:22;99206.22;;;25.14;44.22
66857;BME280;53766;50.280;19.160;2022-08-07T01:18:10;99208.31;;;25.12;44.32
66857;BME280;53766;50.280;19.160;2022-08-07T01:21:02;99208.31;;;25.12;44.23
66857;BME280;53766;50.280;19.160;2022-08-07T01:23:50;99211.00;;;25.12;44.07
66857;BME280;53766;50.280;19.160;2022-08-07T01:26:18;99209.34;;;25.11;44.40
66857;BME280;53766;50.280;19.160;2022-08-07T01:28:49;99217.44;;;25.11;44.06
66857;BME280;53766;50.280;19.160;2022-08-07T01:31:19;99217.44;;;25.11;44.10
66857;BME280;53766;50.280;19.160;2022-08-07T01:33:49;99208.78;;;25.09;44.20
66857;BME280;53766;50.280;19.160;2022-08-07T01:36:24;99210.41;;;25.10;43.92
66857;BME280;53766;50.280;19.160;2022-08-07T01:39:00;99198.81;;;25.09;44.04
66857;BME280;53766;50.280;19.160;2022-08-07T01:41:37;99202.31;;;25.10;43.62
66857;BME280;53766;50.280;19.160;2022-08-07T01:44:21;99208.78;;;25.09;43.89
66857;BME280;53766;50.280;19.160;2022-08-07T01:46:50;99203.41;;;25.09;43.97
66857;BME280;53766;50.280;19.160;2022-08-07T01:49:18;99201.75;;;25.08;43.83
66857;BME280;53766;50.280;19.160;2022-08-07T01:51:49;99199.03;;;25.08;43.73
66857;BME280;53766;50.280;19.160;2022-08-07T01:54:39;99200.09;;;25.07;43.67
66857;BME280;53766;50.280;19.160;2022-08-07T01:57:23;99194.94;;;25.05;43.37
66857;BME280;53766;50.280;19.160;2022-08-07T02:00:03;99194.72;;;25.07;43.49
66857;BME280;53766;50.280;19.160;2022-08-07T02:02:44;99192.25;;;25.05;43.13
66857;BME280;53766;50.280;19.160;2022-08-07T02:05:36;99193.06;;;25.05;43.63
66857;BME280;53766;50.280;19.160;2022-08-07T02:08:27;99190.59;;;25.04;43.23
66857;BME280;53766;50.280;19.160;2022-08-07T02:10:57;99191.44;;;25.04;43.39
66857;BME280;53766;50.280;19.160;2022-08-07T02:13:31;99195.16;;;25.03;43.58
66857;BME280;53766;50.280;19.160;2022-08-07T02:16:21;99209.44;;;25.04;43.63
66857;BME280;53766;50.280;19.160;2022-08-07T02:19:05;99207.59;;;25.04;43.42
66857;BME280;53766;50.280;19.160;2022-08-07T02:21:55;99197.03;;;25.03;43.14
66857;BME280;53766;50.280;19.160;2022-08-07T02:24:27;99205.13;;;25.03;43.04
66857;BME280;53766;50.280;19.160;2022-08-07T02:26:58;99207.00;;;25.02;43.20
66857;BME280;53766;50.280;19.160;2022-08-07T02:29:30;99201.03;;;25.00;43.43
66857;BME280;53766;50.280;19.160;2022-08-07T02:32:17;99203.25;;;25.03;43.03
66857;BME280;53766;50.280;19.160;2022-08-07T02:34:50;99201.84;;;25.01;43.19
66857;BME280;53766;50.280;19.160;2022-08-07T02:37:20;99206.41;;;25.00;43.49
66857;BME280;53766;50.280;19.160;2022-08-07T02:39:50;99210.72;;;25.01;43.48
66857;BME280;53766;50.280;19.160;2022-08-07T02:42:39;99201.03;;;25.00;43.37
66857;BME280;53766;50.280;19.160;2022-08-07T02:45:11;99203.72;;;25.00;42.98
66857;BME280;53766;50.280;19.160;2022-08-07T02:48:00;99214.50;;;25.00;43.27
66857;BME280;53766;50.280;19.160;2022-08-07T02:50:32;99212.84;;;24.99;42.91
66857;BME280;53766;50.280;19.160;2022-08-07T02:53:06;99208.28;;;25.00;43.43
66857;BME280;53766;50.280;19.160;2022-08-07T02:55:43;99209.31;;;24.99;43.32
66857;BME280;53766;50.280;19.160;2022-08-07T02:58:33;99206.41;;;25.00;43.21
66857;BME280;53766;50.280;19.160;2022-08-07T03:01:02;99210.13;;;24.99;43.17
66857;BME280;53766;50.280;19.160;2022-08-07T03:03:32;99207.44;;;24.99;43.23
66857;BME280;53766;50.280;19.160;2022-08-07T03:06:17;99210.13;;;24.99;43.34
66857;BME280;53766;50.280;19.160;2022-08-07T03:09:04;99204.75;;;24.99;43.19
66857;BME280;53766;50.280;19.160;2022-08-07T03:11:34;99204.75;;;24.99;43.34
66857;BME280;53766;50.280;19.160;2022-08-07T03:14:19;99197.72;;;24.98;43.42
66857;BME280;53766;50.280;19.160;2022-08-07T03:16:49;99198.53;;;24.99;43.21
66857;BME280;53766;50.280;19.160;2022-08-07T03:19:19;99197.72;;;24.98;43.22
66857;BME280;53766;50.280;19.160;2022-08-07T03:21:48;99199.81;;;24.96;43.03
66857;BME280;53766;50.280;19.160;2022-08-07T03:24:17;99199.81;;;24.96;43.12
66857;BME280;53766;50.280;19.160;2022-08-07T03:26:59;99198.16;;;24.95;43.11
66857;BME280;53766;50.280;19.160;2022-08-07T03:29:36;99199.81;;;24.96;42.92
66857;BME280;53766;50.280;19.160;2022-08-07T03:32:11;99197.34;;;24.95;43.11
66857;BME280;53766;50.280;19.160;2022-08-07T03:34:43;99198.16;;;24.95;42.91
66857;BME280;53766;50.280;19.160;2022-08-07T03:37:32;99200.25;;;24.93;42.85
66857;BME280;53766;50.280;19.160;2022-08-07T03:40:12;99214.34;;;24.95;42.94
66857;BME280;53766;50.280;19.160;2022-08-07T03:42:42;99214.13;;;24.97;42.99
66857;BME280;53766;50.280;19.160;2022-08-07T03:45:10;99209.78;;;24.96;42.66
66857;BME280;53766;50.280;19.160;2022-08-07T03:47:57;99207.31;;;24.94;42.88
66857;BME280;53766;50.280;19.160;2022-08-07T03:50:27;99205.44;;;24.95;42.64
66857;BME280;53766;50.280;19.160;2022-08-07T03:52:57;99207.31;;;24.94;42.93
66857;BME280;53766;50.280;19.160;2022-08-07T03:55:27;99200.25;;;24.93;43.13
66857;BME280;53766;50.280;19.160;2022-08-07T03:58:16;99202.75;;;24.95;42.89
66857;BME280;53766;50.280;19.160;2022-08-07T04:01:05;99201.94;;;24.94;42.82
66857;BME280;53766;50.280;19.160;2022-08-07T04:03:37;99206.25;;;24.95;42.84
66857;BME280;53766;50.280;19.160;2022-08-07T04:06:22;99208.94;;;24.95;42.64
66857;BME280;53766;50.280;19.160;2022-08-07T04:09:05;99208.94;;;24.95;42.87
66857;BME280;53766;50.280;19.160;2022-08-07T04:11:46;99210.59;;;24.96;42.78
66857;BME280;53766;50.280;19.160;2022-08-07T04:14:35;99208.94;;;24.95;42.74
66857;BME280;53766;50.280;19.160;2022-08-07T04:17:13;99208.94;;;24.95;42.91
66857;BME280;53766;50.280;19.160;2022-08-07T04:19:48;99211.63;;;24.95;42.80
66857;BME280;53766;50.280;19.160;2022-08-07T04:22:23;99210.59;;;24.96;42.80
66857;BME280;53766;50.280;19.160;2022-08-07T04:24:58;99217.63;;;24.97;42.84
66857;BME280;53766;50.280;19.160;2022-08-07T04:27:28;99217.63;;;24.97;42.68
66857;BME280;53766;50.280;19.160;2022-08-07T04:30:03;99224.91;;;24.97;42.68
66857;BME280;53766;50.280;19.160;2022-08-07T04:32:48;99229.47;;;24.96;42.90
66857;BME280;53766;50.280;19.160;2022-08-07T04:35:25;99243.75;;;24.97;42.94
66857;BME280;53766;50.280;19.160;2022-08-07T04:37:53;99232.16;;;24.96;42.57
66857;BME280;53766;50.280;19.160;2022-08-07T04:40:41;99242.94;;;24.96;42.80
66857;BME280;53766;50.280;19.160;2022-08-07T04:43:23;99246.22;;;24.98;42.64
66857;BME280;53766;50.280;19.160;2022-08-07T04:46:32;99246.22;;;24.98;42.96
66857;BME280;53766;50.280;19.160;2022-08-07T04:49:44;99241.44;;;25.00;42.74
66857;BME280;53766;50.280;19.160;2022-08-07T04:52:54;99243.31;;;25.00;42.86
66857;BME280;53766;50.280;19.160;2022-08-07T04:55:39;99237.94;;;25.00;42.68
66857;BME280;53766;50.280;19.160;2022-08-07T04:58:51;99233.34;;;25.00;42.71
66857;BME280;53766;50.280;19.160;2022-08-07T05:07:01;99242.03;;;25.02;42.93
66857;BME280;53766;50.280;19.160;2022-08-07T05:12:27;99250.97;;;25.15;42.69
66857;BME280;53766;50.280;19.160;2022-08-07T05:15:05;99253.00;;;25.19;42.68
66857;BME280;53766;50.280;19.160;2022-08-07T05:17:55;99243.06;;;25.20;42.44
66857;BME280;53766;50.280;19.160;2022-08-07T05:20:33;99250.00;;;25.28;42.48
66857;BME280;53766;50.280;19.160;2022-08-07T05:23:15;99258.34;;;25.26;41.99
66857;BME280;53766;50.280;19.160;2022-08-07T05:25:47;99257.16;;;25.22;42.44
66857;BME280;53766;50.280;19.160;2022-08-07T05:28:36;99252.09;;;25.25;42.65
66857;BME280;53766;50.280;19.160;2022-08-07T05:31:07;99252.94;;;25.26;42.32
66857;BME280;53766;50.280;19.160;2022-08-07T05:33:42;99252.47;;;25.29;42.37
66857;BME280;53766;50.280;19.160;2022-08-07T05:36:28;99255.75;;;25.31;42.05
66857;BME280;53766;50.280;19.160;2022-08-07T05:39:03;99254.47;;;25.34;42.05
66857;BME280;53766;50.280;19.160;2022-08-07T05:41:51;99257.06;;;25.29;42.18
66857;BME280;53766;50.280;19.160;2022-08-07T05:44:32;99257.28;;;25.27;42.60
66857;BME280;53766;50.280;19.160;2022-08-07T05:47:01;99261.03;;;25.26;42.22
66857;BME280;53766;50.280;19.160;2022-08-07T05:49:50;99266.88;;;25.23;42.74
66857;BME280;53766;50.280;19.160;2022-08-07T05:52:20;99256.69;;;25.25;42.42
66857;BME280;53766;50.280;19.160;2022-08-07T05:55:00;99262.88;;;25.25;42.44
66857;BME280;53766;50.280;19.160;2022-08-07T05:57:39;99265.34;;;25.27;42.64
66857;BME280;53766;50.280;19.160;2022-08-07T06:00:09;99259.97;;;25.27;42.65
66857;BME280;53766;50.280;19.160;2022-08-07T06:02:46;99261.03;;;25.26;42.40
66857;BME280;53766;50.280;19.160;2022-08-07T06:05:16;99261.84;;;25.27;42.81
66857;BME280;53766;50.280;19.160;2022-08-07T06:07:46;99259.16;;;25.27;42.82
66857;BME280;53766;50.280;19.160;2022-08-07T06:10:37;99265.34;;;25.27;42.85
66857;BME280;53766;50.280;19.160;2022-08-07T06:13:04;99266.44;;;25.26;42.43
66857;BME280;53766;50.280;19.160;2022-08-07T06:15:40;99260.78;;;25.28;42.72
66857;BME280;53766;50.280;19.160;2022-08-07T06:18:11;99258.69;;;25.30;42.26
66857;BME280;53766;50.280;19.160;2022-08-07T06:20:42;99268.19;;;25.32;42.75
66857;BME280;53766;50.280;19.160;2022-08-07T06:23:31;99268.19;;;25.32;42.52
66857;BME280;53766;50.280;19.160;2022-08-07T06:26:19;99276.88;;;25.34;42.58
66857;BME280;53766;50.280;19.160;2022-08-07T06:28:51;99267.75;;;25.35;42.45
66857;BME280;53766;50.280;19.160;2022-08-07T06:31:20;99267.47;;;25.37;42.73
66857;BME280;53766;50.280;19.160;2022-08-07T06:34:08;99267.25;;;25.38;42.49
66857;BME280;53766;50.280;19.160;2022-08-07T06:36:36;99261.44;;;25.41;42.79
66857;BME280;53766;50.280;19.160;2022-08-07T06:39:04;99270.34;;;25.42;42.53
66857;BME280;53766;50.280;19.160;2022-08-07T06:42:18;99271.16;;;25.42;42.76
66857;BME280;53766;50.280;19.160;2022-08-07T06:45:02;99266.34;;;25.44;42.68
66857;BME280;53766;50.280;19.160;2022-08-07T06:47:31;99271.75;;;25.44;42.80
66857;BME280;53766;50.280;19.160;2022-08-07T06:50:19;99263.06;;;25.42;42.55
66857;BME280;53766;50.280;19.160;2022-08-07T06:52:52;99273.38;;;25.45;42.89
66857;BME280;53766;50.280;19.160;2022-08-07T06:55:28;99267.97;;;25.45;42.45
66857;BME280;53766;50.280;19.160;2022-08-07T06:58:17;99271.53;;;25.46;42.36
66857;BME280;53766;50.280;19.160;2022-08-07T07:00:51;99271.28;;;25.48;42.74
66857;BME280;53766;50.280;19.160;2022-08-07T07:03:19;99276.66;;;25.48;42.75
66857;BME280;53766;50.280;19.160;2022-08-07T07:06:08;99271.75;;;25.44;43.14
66857;BME280;53766;50.280;19.160;2022-08-07T07:08:38;99274.44;;;25.44;42.87
66857;BME280;53766;50.280;19.160;2022-08-07T07:11:13;99275.50;;;25.43;42.99
66857;BME280;53766;50.280;19.160;2022-08-07T07:14:01;99270.34;;;25.42;42.91
66857;BME280;53766;50.280;19.160;2022-08-07T07:16:37;99266.44;;;25.38;43.18
66857;BME280;53766;50.280;19.160;2022-08-07T07:19:30;99279.34;;;25.36;43.21
66857;BME280;53766;50.280;19.160;2022-08-07T07:22:18;99280.63;;;25.33;43.00
66857;BME280;53766;50.280;19.160;2022-08-07T07:25:08;99271.34;;;25.29;42.92
66857;BME280;53766;50.280;19.160;2022-08-07T07:28:00;99267.00;;;25.28;42.83
66857;BME280;53766;50.280;19.160;2022-08-07T07:30:56;99275.31;;;25.27;43.09
66857;BME280;53766;50.280;19.160;2022-08-07T07:33:27;99271.22;;;25.24;43.38
66857;BME280;53766;50.280;19.160;2022-08-07T07:35:58;99274.94;;;25.23;43.44
66857;BME280;53766;50.280;19.160;2022-08-07T07:38:40;99280.34;;;25.23;43.48
66857;BME280;53766;50.280;19.160;2022-08-07T07:41:14;99276.63;;;25.24;43.04
66857;BME280;53766;50.280;19.160;2022-08-07T07:43:45;99278.03;;;25.27;43.48
66857;BME280;53766;50.280;19.160;2022-08-07T07:46:34;99279.44;;;25.29;43.24
66857;BME280;53766;50.280;19.160;2022-08-07T07:49:25;99277.34;;;25.31;43.42
66857;BME280;53766;50.280;19.160;2022-08-07T07:52:16;99278.97;;;25.32;43.09
66857;BME280;53766;50.280;19.160;2022-08-07T07:54:45;99284.34;;;25.32;43.42
66857;BME280;53766;50.280;19.160;2022-08-07T07:57:20;99275.22;;;25.33;43.28
66857;BME280;53766;50.280;19.160;2022-08-07T08:00:10;99271.47;;;25.34;43.16
66857;BME280;53766;50.280;19.160;2022-08-07T08:03:02;99274.75;;;25.36;42.97
66857;BME280;53766;50.280;19.160;2022-08-07T08:05:39;99276.25;;;25.32;43.04
66857;BME280;53766;50.280;19.160;2022-08-07T08:08:24;99273.56;;;25.32;43.15
66857;BME280;53766;50.280;19.160;2022-08-07T08:11:07;99271.13;;;25.31;43.37
66857;BME280;53766;50.280;19.160;2022-08-07T08:13:46;99267.59;;;25.30;43.12
66857;BME280;53766;50.280;19.160;2022-08-07T08:16:34;99265.94;;;25.29;43.01
66857;BME280;53766;50.280;19.160;2022-08-07T08:19:06;99274.03;;;25.29;43.12
66857;BME280;53766;50.280;19.160;2022-08-07T08:21:56;99278.97;;;25.32;43.31
66857;BME280;53766;50.280;19.160;2022-08-07T08:24:44;99279.44;;;25.29;43.21
66857;BME280;53766;50.280;19.160;2022-08-07T08:27:53;99274.03;;;25.29;43.42
66857;BME280;53766;50.280;19.160;2022-08-07T08:30:32;99276.97;;;25.28;43.36
66857;BME280;53766;50.280;19.160;2022-08-07T08:33:10;99270.28;;;25.30;43.30
66857;BME280;53766;50.280;19.160;2022-08-07T08:35:47;99274.03;;;25.29;43.35
66857;BME280;53766;50.280;19.160;2022-08-07T08:38:19;99274.03;;;25.29;43.25
66857;BME280;53766;50.280;19.160;2022-08-07T08:41:33;99270.28;;;25.30;43.52
66857;BME280;53766;50.280;19.160;2022-08-07T08:44:53;99267.84;;;25.29;43.33
66857;BME280;53766;50.280;19.160;2022-08-07T08:47:28;99272.38;;;25.28;43.47
66857;BME280;53766;50.280;19.160;2022-08-07T08:51:04;99272.38;;;25.28;43.37
66857;BME280;53766;50.280;19.160;2022-08-07T08:53:15;99271.56;;;25.28;43.72
66857;BME280;53766;50.280;19.160;2022-08-07T08:56:05;99274.50;;;25.26;43.51
66857;BME280;53766;50.280;19.160;2022-08-07T09:01:39;99282.59;;;25.26;43.42
66857;BME280;53766;50.280;19.160;2022-08-07T09:04:21;99285.28;;;25.26;43.36
66857;BME280;53766;50.280;19.160;2022-08-07T09:07:07;99286.47;;;25.30;43.74
66857;BME280;53766;50.280;19.160;2022-08-07T09:21:32;99284.41;;;25.44;43.43
66857;BME280;53766;50.280;19.160;2022-08-07T09:24:35;99279.25;;;25.42;42.90
66857;BME280;53766;50.280;19.160;2022-08-07T09:36:34;99273.25;;;25.40;42.20
66857;BME280;53766;50.280;19.160;2022-08-07T09:45:20;99265.63;;;25.37;41.80
66857;BME280;53766;50.280;19.160;2022-08-07T09:48:18;99269.38;;;25.36;41.66
66857;BME280;53766;50.280;19.160;2022-08-07T09:54:24;99260.25;;;25.37;41.57
66857;BME280;53766;50.280;19.160;2022-08-07T09:59:57;99248.53;;;25.43;41.52
66857;BME280;53766;50.280;19.160;2022-08-07T10:20:50;99228.88;;;25.55;41.40
66857;BME280;53766;50.280;19.160;2022-08-07T10:29:46;99221.69;;;25.60;40.90
66857;BME280;53766;50.280;19.160;2022-08-07T10:41:34;99209.28;;;25.59;40.29
66857;BME280;53766;50.280;19.160;2022-08-07T10:45:17;99198.72;;;25.58;39.96
66857;BME280;53766;50.280;19.160;2022-08-07T10:48:30;99192.63;;;25.62;38.85
66857;BME280;53766;50.280;19.160;2022-08-07T10:51:09;99195.91;;;25.64;40.04
66857;BME280;53766;50.280;19.160;2022-08-07T10:54:35;99189.22;;;25.67;39.68
66857;BME280;53766;50.280;19.160;2022-08-07T11:00:26;99198.38;;;25.66;40.07
66857;BME280;53766;50.280;19.160;2022-08-07T11:03:28;99193.22;;;25.64;39.46
66857;BME280;53766;50.280;19.160;2022-08-07T11:06:27;99181.00;;;25.62;39.35
66857;BME280;53766;50.280;19.160;2022-08-07T11:09:02;99190.19;;;25.61;39.83
66857;BME280;53766;50.280;19.160;2022-08-07T11:11:53;99180.41;;;25.60;39.72
66857;BME280;53766;50.280;19.160;2022-08-07T11:14:32;99188.50;;;25.60;39.81
66857;BME280;53766;50.280;19.160;2022-08-07T11:17:30;99176.91;;;25.59;40.16
66857;BME280;53766;50.280;19.160;2022-08-07T11:20:25;99187.94;;;25.58;39.15
66857;BME280;53766;50.280;19.160;2022-08-07T11:23:13;99179.84;;;25.58;39.02
66857;BME280;53766;50.280;19.160;2022-08-07T11:26:07;99178.19;;;25.57;38.27
66857;BME280;53766;50.280;19.160;2022-08-07T11:28:55;99177.63;;;25.55;38.11
66857;BME280;53766;50.280;19.160;2022-08-07T11:31:33;99175.72;;;25.55;38.76
66857;BME280;53766;50.280;19.160;2022-08-07T11:37:10;99169.53;;;25.55;38.79
66857;BME280;53766;50.280;19.160;2022-08-07T11:45:29;99168.59;;;25.61;39.25
66857;BME280;53766;50.280;19.160;2022-08-07T11:51:03;99155.66;;;25.63;38.45
66857;BME280;53766;50.280;19.160;2022-08-07T11:53:49;99151.34;;;25.62;39.05
66857;BME280;53766;50.280;19.160;2022-08-07T12:05:41;99152.03;;;25.69;38.58
66857;BME280;53766;50.280;19.160;2022-08-07T12:08:28;99150.19;;;25.70;38.35
66857;BME280;53766;50.280;19.160;2022-08-07T12:11:21;99145.59;;;25.70;38.72
66857;BME280;53766;50.280;19.160;2022-08-07T12:14:16;99141.03;;;25.71;39.01
66857;BME280;53766;50.280;19.160;2022-08-07T12:16:55;99134.00;;;25.70;38.64
66857;BME280;53766;50.280;19.160;2022-08-07T12:22:41;99143.50;;;25.72;38.33
66857;BME280;53766;50.280;19.160;2022-08-07T12:25:38;99134.31;;;25.73;38.72
66857;BME280;53766;50.280;19.160;2022-08-07T12:29:11;99133.50;;;25.73;38.52
66857;BME280;53766;50.280;19.160;2022-08-07T12:34:33;99134.31;;;25.73;37.96
66857;BME280;53766;50.280;19.160;2022-08-07T12:37:02;99133.50;;;25.73;38.04
66857;BME280;53766;50.280;19.160;2022-08-07T12:39:48;99121.91;;;25.72;38.02
66857;BME280;53766;50.280;19.160;2022-08-07T12:42:24;99123.53;;;25.73;38.30
66857;BME280;53766;50.280;19.160;2022-08-07T12:45:04;99119.81;;;25.74;38.13
66857;BME280;53766;50.280;19.160;2022-08-07T12:47:44;99125.19;;;25.74;38.26
66857;BME280;53766;50.280;19.160;2022-08-07T12:55:51;99112.28;;;25.76;38.09
66857;BME280;53766;50.280;19.160;2022-08-07T12:58:34;99113.09;;;25.77;38.48
66857;BME280;53766;50.280;19.160;2022-08-07T13:01:29;99104.78;;;25.78;38.32
66857;BME280;53766;50.280;19.160;2022-08-07T13:19:15;99094.09;;;25.83;38.53
66857;BME280;53766;50.280;19.160;2022-08-07T13:22:28;99086.00;;;25.83;38.16
66857;BME280;53766;50.280;19.160;2022-08-07T13:25:07;99094.69;;;25.85;38.43
66857;BME280;53766;50.280;19.160;2022-08-07T13:27:48;99098.41;;;25.84;38.44
66857;BME280;53766;50.280;19.160;2022-08-07T13:30:37;99091.75;;;25.87;38.16
66857;BME280;53766;50.280;19.160;2022-08-07T13:36:15;99084.69;;;25.98;38.02
66857;BME280;53766;50.280;19.160;2022-08-07T13:39:06;99076.59;;;25.98;38.03
66857;BME280;53766;50.280;19.160;2022-08-07T13:41:55;99080.59;;;25.95;37.92
66857;BME280;53766;50.280;19.160;2022-08-07T13:44:29;99075.47;;;25.94;37.40
66857;BME280;53766;50.280;19.160;2022-08-07T13:47:02;99081.31;;;25.91;36.92
66857;BME280;53766;50.280;19.160;2022-08-07T13:49:38;99072.63;;;25.89;37.09
66857;BME280;53766;50.280;19.160;2022-08-07T13:52:30;99068.91;;;25.90;37.18
66857;BME280;53766;50.280;19.160;2022-08-07T13:55:12;99069.94;;;25.89;36.84
66857;BME280;53766;50.280;19.160;2022-08-07T13:58:05;99069.31;;;25.86;36.64
66857;BME280;53766;50.280;19.160;2022-08-07T14:01:25;99076.38;;;25.88;36.73
66857;BME280;53766;50.280;19.160;2022-08-07T14:03:55;99068.28;;;25.88;36.75
66857;BME280;53766;50.280;19.160;2022-08-07T14:06:36;99058.91;;;25.90;36.97
66857;BME280;53766;50.280;19.160;2022-08-07T14:12:10;99050.31;;;25.93;36.67
66857;BME280;53766;50.280;19.160;2022-08-07T14:14:42;99050.91;;;25.95;36.42
66857;BME280;53766;50.280;19.160;2022-08-07T14:17:13;99050.69;;;25.97;36.56
66857;BME280;53766;50.280;19.160;2022-08-07T14:20:16;99045.88;;;25.99;36.84
66857;BME280;53766;50.280;19.160;2022-08-07T14:23:10;99044.78;;;26.00;37.05
66857;BME280;53766;50.280;19.160;2022-08-07T14:26:00;99049.59;;;25.98;36.82
66857;BME280;53766;50.280;19.160;2022-08-07T14:28:35;99050.44;;;25.98;36.70
66857;BME280;53766;50.280;19.160;2022-08-07T14:31:24;99046.09;;;25.97;37.14
66857;BME280;53766;50.280;19.160;2022-08-07T14:34:12;99046.59;;;25.94;36.97
66857;BME280;53766;50.280;19.160;2022-08-07T14:36:47;99036.84;;;25.93;37.03
66857;BME280;53766;50.280;19.160;2022-08-07T14:39:23;99031.69;;;25.92;36.65
66857;BME280;53766;50.280;19.160;2022-08-07T14:42:13;99031.94;;;25.90;36.77
66857;BME280;53766;50.280;19.160;2022-08-07T14:44:52;99027.34;;;25.91;36.97
66857;BME280;53766;50.280;19.160;2022-08-07T14:47:30;99023.25;;;25.88;36.58
66857;BME280;53766;50.280;19.160;2022-08-07T14:50:04;99012.44;;;25.88;35.98
66857;BME280;53766;50.280;19.160;2022-08-07T14:52:38;99017.34;;;25.91;35.52
66857;BME280;53766;50.280;19.160;2022-08-07T14:55:08;99014.44;;;25.93;35.85
66857;BME280;53766;50.280;19.160;2022-08-07T14:57:46;99015.59;;;25.97;35.93
66857;BME280;53766;50.280;19.160;2022-08-07T15:00:28;99016.75;;;26.01;36.46
66857;BME280;53766;50.280;19.160;2022-08-07T15:02:58;99018.16;;;26.03;36.36
66857;BME280;53766;50.280;19.160;2022-08-07T15:05:47;99007.13;;;26.05;36.19
66857;BME280;53766;50.280;19.160;2022-08-07T15:08:38;99003.34;;;26.06;36.28
66857;BME280;53766;50.280;19.160;2022-08-07T15:11:24;99000.66;;;26.06;36.14
66857;BME280;53766;50.280;19.160;2022-08-07T15:14:21;99005.47;;;26.04;35.97
66857;BME280;53766;50.280;19.160;2022-08-07T15:17:12;99008.09;;;25.99;34.97
66857;BME280;53766;50.280;19.160;2022-08-07T15:19:50;99005.28;;;25.94;34.82
66857;BME280;53766;50.280;19.160;2022-08-07T15:22:46;99004.56;;;25.86;34.75
66857;BME280;53766;50.280;19.160;2022-08-07T15:25:33;98996.72;;;25.85;34.45
66857;BME280;53766;50.280;19.160;2022-08-07T15:28:25;99000.59;;;25.77;35.17
66857;BME280;53766;50.280;19.160;2022-08-07T15:31:16;99001.09;;;25.74;34.08
66857;BME280;53766;50.280;19.160;2022-08-07T15:34:05;98994.03;;;25.73;35.06
66857;BME280;53766;50.280;19.160;2022-08-07T15:36:44;98994.53;;;25.70;34.57
66857;BME280;53766;50.280;19.160;2022-08-07T15:39:38;98995.56;;;25.69;34.58
66857;BME280;53766;50.280;19.160;2022-08-07T15:47:59;98988.06;;;25.71;35.41
66857;BME280;53766;50.280;19.160;2022-08-07T15:50:30;98985.28;;;25.66;34.71
66857;BME280;53766;50.280;19.160;2022-08-07T15:53:34;98986.31;;;25.65;34.91
66857;BME280;53766;50.280;19.160;2022-08-07T15:56:31;98983.88;;;25.63;34.34
66857;BME280;53766;50.280;19.160;2022-08-07T15:59:04;98986.31;;;25.65;35.12
66857;BME280;53766;50.280;19.160;2022-08-07T16:01:46;98978.13;;;25.60;34.22
66857;BME280;53766;50.280;19.160;2022-08-07T16:04:30;98985.19;;;25.61;33.92
66857;BME280;53766;50.280;19.160;2022-08-07T16:07:03;98983.53;;;25.60;34.40
66857;BME280;53766;50.280;19.160;2022-08-07T16:09:57;98978.13;;;25.60;34.18
66857;BME280;53766;50.280;19.160;2022-08-07T16:22:41;98969.00;;;25.61;35.47
66857;BME280;53766;50.280;19.160;2022-08-07T16:34:17;98967.13;;;25.50;44.33
66857;BME280;53766;50.280;19.160;2022-08-07T16:40:12;98969.22;;;25.48;43.87
66857;BME280;53766;50.280;19.160;2022-08-07T16:49:56;98970.53;;;25.45;44.32
66857;BME280;53766;50.280;19.160;2022-08-07T16:53:24;98973.34;;;25.38;46.32
66857;BME280;53766;50.280;19.160;2022-08-07T16:59:32;98969.63;;;25.39;46.23